createdAt,value
2022-08-10T00:01:51.450Z,1.73
2022-08-10T00:04:21.643Z,1.90
2022-08-10T00:06:50.587Z,1.70
2022-08-10T00:09:18.766Z,1.60
2022-08-10T00:11:47.469Z,1.93
2022-08-10T00:14:15.767Z,1.80
2022-08-10T00:16:45.494Z,1.77
2022-08-10T00:19:17.250Z,1.70
2022-08-10T00:21:46.755Z,1.80
2022-08-10T00:24:15.353Z,1.73
2022-08-10T00:27:52.895Z,1.93
2022-08-10T00:29:32.230Z,2.13
2022-08-10T00:32:01.921Z,1.80
2022-08-10T00:34:30.768Z,1.70
2022-08-10T00:37:00.039Z,2.00
2022-08-10T00:39:28.757Z,1.80
2022-08-10T00:42:02.321Z,2.10
2022-08-10T00:44:36.145Z,2.23
2022-08-10T00:47:06.750Z,2.00
2022-08-10T00:49:35.295Z,2.10
2022-08-10T00:52:04.879Z,2.00
2022-08-10T00:54:36.014Z,1.90
2022-08-10T00:57:17.805Z,2.17
2022-08-10T00:59:59.006Z,2.00
2022-08-10T01:02:30.881Z,2.10
2022-08-10T01:05:02.513Z,1.70
2022-08-10T01:07:50.203Z,2.00
2022-08-10T01:10:29.898Z,2.17
2022-08-10T01:13:05.582Z,2.03
2022-08-10T01:15:42.118Z,2.00
2022-08-10T01:18:17.245Z,1.80
2022-08-10T01:20:59.824Z,2.10
2022-08-10T01:24:00.595Z,2.50
2022-08-10T01:27:06.704Z,2.07
2022-08-10T01:29:51.161Z,2.20
2022-08-10T01:32:32.814Z,2.07
2022-08-10T01:35:11.199Z,2.03
2022-08-10T01:37:52.125Z,2.10
2022-08-10T01:40:25.791Z,2.20
2022-08-10T01:42:59.837Z,1.97
2022-08-10T01:45:44.545Z,2.50
2022-08-10T01:48:31.967Z,2.17
2022-08-10T01:51:07.583Z,2.53
2022-08-10T01:53:41.864Z,2.10
2022-08-10T01:56:13.702Z,2.50
2022-08-10T01:58:43.944Z,2.20
2022-08-10T02:01:18.577Z,2.23
2022-08-10T02:04:03.741Z,2.60
2022-08-10T02:06:38.129Z,2.60
2022-08-10T02:09:08.838Z,2.20
2022-08-10T02:12:06.142Z,2.43
2022-08-10T02:14:33.930Z,2.33
2022-08-10T02:17:09.059Z,2.50
2022-08-10T02:20:03.214Z,2.27
2022-08-10T02:22:36.277Z,2.73
2022-08-10T02:25:41.774Z,2.37
2022-08-10T02:28:05.951Z,3.30
2022-08-10T02:30:35.574Z,2.73
2022-08-10T02:33:05.808Z,2.47
2022-08-10T02:35:55.494Z,2.57
2022-08-10T02:38:59.591Z,2.30
2022-08-10T02:45:00.993Z,2.50
2022-08-10T02:45:19.057Z,2.33
2022-08-10T02:47:16.846Z,2.70
2022-08-10T02:49:57.510Z,2.90
2022-08-10T02:52:36.504Z,2.37
2022-08-10T02:55:17.908Z,2.67
2022-08-10T02:58:17.124Z,2.27
2022-08-10T03:00:45.791Z,2.57
2022-08-10T03:03:19.887Z,2.30
2022-08-10T03:05:56.807Z,2.53
2022-08-10T03:08:29.124Z,2.50
2022-08-10T03:11:00.352Z,2.40
2022-08-10T03:13:30.583Z,3.03
2022-08-10T03:16:01.634Z,2.30
2022-08-10T03:18:31.560Z,2.90
2022-08-10T03:21:03.058Z,2.40
2022-08-10T03:23:32.516Z,2.60
2022-08-10T03:26:02.045Z,2.67
2022-08-10T03:28:33.624Z,2.77
2022-08-10T03:31:03.404Z,3.13
2022-08-10T03:33:34.470Z,2.90
2022-08-10T03:36:40.643Z,2.77
2022-08-10T03:38:53.306Z,2.57
2022-08-10T03:41:27.440Z,2.57
2022-08-10T03:44:00.337Z,2.33
2022-08-10T03:46:30.655Z,2.30
2022-08-10T03:49:03.765Z,2.50
2022-08-10T03:51:34.535Z,2.40
2022-08-10T03:54:07.351Z,2.47
2022-08-10T03:56:38.483Z,2.90
2022-08-10T03:59:08.598Z,2.47
2022-08-10T04:02:45.178Z,2.57
2022-08-10T04:04:26.785Z,2.67
2022-08-10T04:06:58.163Z,2.30
2022-08-10T04:09:54.207Z,2.60
2022-08-10T04:12:19.618Z,2.63
2022-08-10T04:14:50.540Z,2.53
2022-08-10T04:17:56.819Z,2.77
2022-08-10T04:20:14.895Z,2.53
2022-08-10T04:22:45.897Z,2.10
2022-08-10T04:25:16.636Z,2.70
2022-08-10T04:27:45.778Z,2.60
2022-08-10T04:30:14.126Z,2.57
2022-08-10T04:32:44.561Z,2.90
2022-08-10T04:35:14.972Z,2.23
2022-08-10T04:37:47.449Z,2.63
2022-08-10T04:40:29.509Z,2.77
2022-08-10T04:43:10.845Z,2.70
2022-08-10T04:45:49.357Z,2.47
2022-08-10T04:48:42.203Z,2.23
2022-08-10T04:51:11.233Z,2.60
2022-08-10T04:54:05.771Z,2.20
2022-08-10T04:56:33.954Z,2.67
2022-08-10T04:59:02.503Z,2.40
2022-08-10T05:02:09.943Z,2.43
2022-08-10T05:04:35.364Z,2.30
2022-08-10T05:07:11.268Z,2.40
2022-08-10T05:10:05.041Z,2.80
2022-08-10T05:12:36.448Z,2.53
2022-08-10T05:15:07.903Z,2.40
2022-08-10T05:17:36.506Z,2.60
2022-08-10T05:20:06.344Z,2.30
2022-08-10T05:22:40.504Z,2.43
2022-08-10T05:25:13.008Z,2.50
2022-08-10T05:27:42.067Z,2.33
2022-08-10T05:30:14.599Z,2.30
2022-08-10T05:32:57.445Z,2.40
2022-08-10T05:35:28.628Z,2.27
2022-08-10T05:38:13.460Z,2.10
2022-08-10T05:40:46.693Z,2.60
2022-08-10T05:43:18.750Z,2.27
2022-08-10T05:46:17.246Z,2.53
2022-08-10T05:48:56.406Z,2.20
2022-08-10T05:51:26.668Z,2.53
2022-08-10T05:54:02.656Z,2.40
2022-08-10T05:56:55.860Z,2.10
2022-08-10T06:00:33.149Z,2.50
2022-08-10T06:02:41.704Z,2.13
2022-08-10T06:05:12.600Z,2.50
2022-08-10T06:07:43.709Z,2.30
2022-08-10T06:10:28.562Z,2.20
2022-08-10T06:13:26.907Z,2.43
2022-08-10T06:16:05.874Z,2.87
2022-08-10T06:18:34.450Z,2.20
2022-08-10T06:21:03.500Z,2.13
2022-08-10T06:23:33.767Z,2.33
2022-08-10T06:26:09.783Z,2.10
2022-08-10T06:28:58.253Z,2.23
2022-08-10T06:31:48.136Z,2.17
2022-08-10T06:34:21.554Z,2.10
2022-08-10T06:36:50.294Z,2.00
2022-08-10T06:39:35.595Z,2.20
2022-08-10T06:42:18.124Z,2.07
2022-08-10T06:44:54.867Z,3.47
2022-08-10T06:47:28.013Z,2.03
2022-08-10T06:50:01.492Z,2.03
2022-08-10T06:52:33.941Z,2.40
2022-08-10T06:55:05.588Z,2.17
2022-08-10T06:57:39.961Z,1.80
2022-08-10T07:00:11.467Z,1.93
2022-08-10T07:02:48.542Z,2.33
2022-08-10T07:05:21.143Z,2.40
2022-08-10T07:07:52.845Z,1.70
2022-08-10T07:10:25.077Z,2.40
2022-08-10T07:13:11.634Z,1.97
2022-08-10T07:15:59.458Z,1.87
2022-08-10T07:18:30.628Z,1.80
2022-08-10T07:21:02.072Z,1.90
2022-08-10T07:23:58.541Z,1.60
2022-08-10T07:26:22.164Z,1.70
2022-08-10T07:28:52.723Z,2.07
2022-08-10T07:31:54.551Z,1.80
2022-08-10T07:34:12.518Z,1.57
2022-08-10T07:36:52.858Z,1.80
2022-08-10T07:40:01.698Z,2.20
2022-08-10T07:42:14.055Z,2.00
2022-08-10T07:44:45.339Z,2.10
2022-08-10T07:47:18.221Z,2.00
2022-08-10T07:50:12.058Z,2.17
2022-08-10T07:52:41.621Z,1.73
2022-08-10T07:55:14.776Z,1.70
2022-08-10T07:57:45.703Z,1.60
2022-08-10T08:00:15.246Z,1.73
2022-08-10T08:02:49.298Z,1.87
2022-08-10T08:05:59.116Z,1.87
2022-08-10T08:08:11.582Z,1.63
2022-08-10T08:10:40.447Z,2.30
2022-08-10T08:13:09.695Z,1.70
2022-08-10T08:16:18.269Z,1.40
2022-08-10T08:18:30.553Z,1.60
2022-08-10T08:20:59.324Z,1.80
2022-08-10T08:24:04.586Z,1.37
2022-08-10T08:26:20.772Z,1.40
2022-08-10T08:28:50.569Z,1.67
2022-08-10T08:31:20.247Z,1.60
2022-08-10T08:33:50.866Z,2.10
2022-08-10T08:36:21.020Z,1.50
2022-08-10T08:38:50.330Z,1.70
2022-08-10T08:41:42.061Z,1.30
2022-08-10T08:44:21.934Z,1.30
2022-08-10T08:48:02.093Z,1.60
2022-08-10T08:50:17.705Z,1.53
2022-08-10T08:52:54.879Z,1.60
2022-08-10T08:56:05.078Z,1.47
2022-08-10T08:58:38.352Z,1.48
2022-08-10T09:01:20.537Z,1.73
2022-08-10T09:04:19.776Z,1.30
2022-08-10T09:07:56.232Z,1.50
2022-08-10T09:10:10.557Z,1.45
2022-08-10T09:12:51.193Z,1.20
2022-08-10T09:15:40.702Z,1.58
2022-08-10T09:18:19.123Z,1.40
2022-08-10T09:20:50.717Z,1.27
2022-08-10T09:24:04.193Z,1.20
2022-08-10T09:26:22.064Z,1.30
2022-08-10T09:29:03.670Z,1.10
2022-08-10T09:32:54.955Z,1.30
2022-08-10T09:36:22.959Z,1.10
2022-08-10T09:38:02.191Z,1.35
2022-08-10T09:41:00.538Z,1.20
2022-08-10T09:43:41.047Z,0.98
2022-08-10T09:46:21.588Z,1.08
2022-08-10T09:49:01.979Z,1.33
2022-08-10T09:51:48.053Z,1.00
2022-08-10T09:54:31.602Z,1.13
2022-08-10T09:57:44.988Z,1.23
2022-08-10T10:00:10.366Z,1.40
2022-08-10T10:02:52.589Z,1.30
2022-08-10T10:05:34.981Z,0.70
2022-08-10T10:08:12.087Z,0.90
2022-08-10T10:10:47.823Z,1.23
2022-08-10T10:13:49.009Z,1.02
2022-08-10T10:16:35.270Z,1.30
2022-08-10T10:19:15.224Z,0.95
2022-08-10T10:21:54.139Z,1.02
2022-08-10T10:24:34.252Z,0.80
2022-08-10T10:27:20.191Z,1.25
2022-08-10T10:29:59.310Z,0.90
2022-08-10T10:32:39.756Z,0.70
2022-08-10T10:35:17.413Z,1.17
2022-08-10T10:38:10.653Z,0.90
2022-08-10T10:40:45.139Z,1.00
2022-08-10T10:43:33.098Z,1.00
2022-08-10T10:46:12.572Z,1.00
2022-08-10T10:48:58.799Z,0.80
2022-08-10T10:51:30.589Z,1.08
2022-08-10T10:54:06.841Z,0.90
2022-08-10T10:56:43.671Z,0.90
2022-08-10T10:59:56.518Z,0.90
2022-08-10T11:02:27.219Z,0.75
2022-08-10T11:05:09.683Z,0.98
2022-08-10T11:07:45.987Z,0.80
2022-08-10T11:10:32.561Z,0.80
2022-08-10T11:14:25.271Z,1.45
2022-08-10T11:16:21.370Z,0.93
2022-08-10T11:19:04.406Z,0.80
2022-08-10T11:21:44.302Z,0.98
2022-08-10T11:24:48.497Z,0.82
2022-08-10T11:27:33.588Z,1.05
2022-08-10T11:30:06.718Z,1.15
2022-08-10T11:32:44.169Z,1.08
2022-08-10T11:35:23.435Z,1.13
2022-08-10T11:38:32.769Z,1.33
2022-08-10T11:40:55.943Z,1.10
2022-08-10T11:43:27.447Z,1.00
2022-08-10T11:46:08.006Z,1.30
2022-08-10T11:48:53.692Z,1.38
2022-08-10T11:51:32.005Z,1.20
2022-08-10T11:54:09.033Z,0.90
2022-08-10T11:57:01.842Z,0.90
2022-08-10T11:59:58.137Z,1.00
2022-08-10T12:02:32.513Z,0.85
2022-08-10T12:05:08.145Z,0.80
2022-08-10T12:10:06.058Z,1.05
2022-08-10T12:10:31.735Z,1.00
2022-08-10T12:13:08.015Z,1.05
2022-08-10T12:15:43.209Z,0.90
2022-08-10T12:18:18.726Z,0.85
2022-08-10T12:20:52.397Z,0.90
2022-08-10T12:23:29.811Z,1.00
2022-08-10T12:26:14.230Z,0.70
2022-08-10T12:28:51.444Z,1.00
2022-08-10T12:31:26.339Z,0.95
2022-08-10T12:34:06.603Z,0.95
2022-08-10T12:36:41.301Z,0.90
2022-08-10T12:39:17.591Z,1.00
2022-08-10T12:41:52.959Z,1.13
2022-08-10T12:44:34.891Z,1.02
2022-08-10T12:47:18.176Z,0.60
2022-08-10T12:50:29.685Z,0.80
2022-08-10T12:52:51.503Z,1.10
2022-08-10T12:55:22.319Z,1.00
2022-08-10T12:57:53.932Z,0.80
2022-08-10T13:00:27.932Z,1.15
2022-08-10T13:02:58.529Z,0.90
2022-08-10T13:05:28.224Z,0.90
2022-08-10T13:08:27.074Z,1.10
2022-08-10T13:11:04.278Z,1.10
2022-08-10T13:13:36.296Z,1.05
2022-08-10T13:16:05.509Z,0.88
2022-08-10T13:18:36.686Z,1.10
2022-08-10T13:21:20.337Z,1.38
2022-08-10T13:24:03.449Z,0.82
2022-08-10T13:27:25.168Z,0.90
2022-08-10T13:29:33.195Z,1.00
2022-08-10T13:32:09.610Z,1.00
2022-08-10T13:34:45.614Z,0.90
2022-08-10T13:37:17.454Z,0.80
2022-08-10T13:39:59.231Z,0.90
2022-08-10T13:42:34.984Z,0.90
2022-08-10T13:45:09.776Z,0.80
2022-08-10T13:47:48.732Z,0.80
2022-08-10T13:50:33.156Z,0.80
2022-08-10T13:53:14.031Z,0.88
2022-08-10T13:55:55.159Z,1.00
2022-08-10T13:58:29.476Z,0.70
2022-08-10T14:00:59.964Z,0.75
2022-08-10T14:03:29.669Z,0.90
2022-08-10T14:06:00.108Z,0.82
2022-08-10T14:08:31.110Z,0.90
2022-08-10T14:11:10.477Z,0.70
2022-08-10T14:13:45.188Z,0.80
2022-08-10T14:16:15.765Z,0.80
2022-08-10T14:18:46.043Z,1.38
2022-08-10T14:21:15.910Z,1.05
2022-08-10T14:23:52.068Z,1.45
2022-08-10T14:26:25.211Z,1.27
2022-08-10T14:28:58.744Z,1.40
2022-08-10T14:32:00.737Z,1.08
2022-08-10T14:36:16.885Z,1.08
2022-08-10T14:37:33.200Z,1.65
2022-08-10T14:40:09.090Z,1.27
2022-08-10T14:42:39.449Z,1.13
2022-08-10T14:45:20.087Z,1.40
2022-08-10T14:48:03.297Z,0.95
2022-08-10T14:50:33.956Z,1.13
2022-08-10T14:53:09.488Z,1.20
2022-08-10T14:55:58.584Z,1.20
2022-08-10T14:58:30.797Z,1.30
2022-08-10T15:01:01.676Z,1.20
2022-08-10T15:04:01.631Z,1.38
2022-08-10T15:06:30.241Z,1.00
2022-08-10T15:09:12.711Z,1.05
2022-08-10T15:12:15.020Z,1.10
2022-08-10T15:14:43.051Z,1.58
2022-08-10T15:17:15.708Z,1.10
2022-08-10T15:20:02.600Z,1.13
2022-08-10T15:22:38.630Z,1.10
2022-08-10T15:25:19.315Z,1.10
2022-08-10T15:27:57.219Z,1.08
2022-08-10T15:30:31.370Z,1.10
2022-08-10T15:33:59.454Z,1.15
2022-08-10T15:36:32.964Z,1.00
2022-08-10T15:39:04.666Z,1.00
2022-08-10T15:41:58.819Z,1.20
2022-08-10T15:44:38.136Z,1.33
2022-08-10T15:47:10.255Z,1.02
2022-08-10T15:49:46.988Z,1.20
2022-08-10T15:52:39.491Z,0.93
2022-08-10T15:55:41.166Z,1.20
2022-08-10T15:58:09.001Z,1.10
2022-08-10T16:00:49.077Z,1.00
2022-08-10T16:03:37.944Z,1.38
2022-08-10T16:06:12.772Z,0.80
2022-08-10T16:08:56.058Z,0.90
2022-08-10T16:11:37.983Z,1.13
2022-08-10T16:14:17.675Z,1.15
2022-08-10T16:16:51.384Z,1.20
2022-08-10T16:19:23.830Z,1.33
2022-08-10T16:21:59.952Z,0.98
2022-08-10T16:24:33.743Z,1.15
2022-08-10T16:27:06.647Z,0.90
2022-08-10T16:29:56.007Z,1.10
2022-08-10T16:32:26.601Z,1.23
2022-08-10T16:34:56.566Z,1.35
2022-08-10T16:37:58.354Z,1.02
2022-08-10T16:40:23.857Z,1.05
2022-08-10T16:42:54.160Z,0.98
2022-08-10T16:45:30.934Z,1.10
2022-08-10T16:48:00.045Z,1.33
2022-08-10T16:50:32.096Z,1.40
2022-08-10T16:53:03.497Z,1.17
2022-08-10T16:55:48.490Z,1.20
2022-08-10T16:58:25.073Z,1.10
2022-08-10T17:00:54.931Z,1.73
2022-08-10T17:04:06.992Z,1.30
2022-08-10T17:06:23.661Z,1.00
2022-08-10T17:08:56.953Z,1.10
2022-08-10T17:11:31.510Z,1.23
2022-08-10T17:14:01.335Z,1.10
2022-08-10T17:16:35.662Z,1.38
2022-08-10T17:19:08.327Z,1.13
2022-08-10T17:21:51.159Z,1.20
2022-08-10T17:24:25.371Z,1.30
2022-08-10T17:26:57.001Z,1.20
2022-08-10T17:29:57.315Z,1.42
2022-08-10T17:32:25.077Z,1.17
2022-08-10T17:34:58.298Z,1.50
2022-08-10T17:37:31.463Z,1.35
2022-08-10T17:40:05.608Z,1.15
2022-08-10T17:42:36.562Z,1.23
2022-08-10T17:45:07.394Z,1.23
2022-08-10T17:47:36.474Z,1.25
2022-08-10T17:50:05.133Z,1.30
2022-08-10T17:52:34.605Z,1.50
2022-08-10T17:55:06.935Z,1.40
2022-08-10T17:57:39.139Z,2.03
2022-08-10T18:00:14.185Z,1.10
2022-08-10T18:02:46.235Z,1.27
2022-08-10T18:05:15.904Z,1.40
2022-08-10T18:07:49.034Z,0.90
2022-08-10T18:10:21.827Z,1.30
2022-08-10T18:12:53.643Z,1.30
2022-08-10T18:15:27.138Z,1.30
2022-08-10T18:17:59.526Z,1.37
2022-08-10T18:20:34.122Z,1.33
2022-08-10T18:23:03.856Z,1.50
2022-08-10T18:25:37.548Z,1.20
2022-08-10T18:28:11.408Z,1.43
2022-08-10T18:30:46.342Z,1.27
2022-08-10T18:33:16.760Z,1.33
2022-08-10T18:35:46.694Z,1.40
2022-08-10T18:38:17.597Z,1.00
2022-08-10T18:40:54.071Z,1.20
2022-08-10T18:44:07.481Z,1.83
2022-08-10T18:46:22.873Z,1.30
2022-08-10T18:48:59.386Z,1.20
2022-08-10T18:51:35.699Z,1.40
2022-08-10T18:54:39.449Z,1.30
2022-08-10T18:57:28.869Z,1.30
2022-08-10T19:00:11.095Z,1.20
2022-08-10T19:03:23.558Z,1.43
2022-08-10T19:06:00.204Z,1.40
2022-08-10T19:08:49.356Z,2.63
2022-08-10T19:11:25.438Z,1.50
2022-08-10T19:14:03.946Z,1.30
2022-08-10T19:16:39.456Z,1.40
2022-08-10T19:19:23.059Z,1.40
2022-08-10T19:22:01.972Z,1.33
2022-08-10T19:24:42.101Z,1.60
2022-08-10T19:27:16.392Z,1.27
2022-08-10T19:30:09.589Z,1.60
2022-08-10T19:33:03.441Z,1.37
2022-08-10T19:36:02.911Z,1.70
2022-08-10T19:38:37.400Z,1.67
2022-08-10T19:41:31.934Z,1.57
2022-08-10T19:44:08.235Z,1.63
2022-08-10T19:46:43.519Z,1.43
2022-08-10T19:49:24.074Z,1.80
2022-08-10T19:51:57.862Z,2.20
2022-08-10T19:54:37.330Z,1.63
2022-08-10T19:57:13.129Z,1.80
2022-08-10T20:00:16.235Z,2.00
2022-08-10T20:02:48.131Z,1.80
2022-08-10T20:05:26.738Z,1.63
2022-08-10T20:07:59.339Z,1.50
2022-08-10T20:10:37.942Z,1.40
2022-08-10T20:13:15.039Z,1.90
2022-08-10T20:15:47.682Z,1.80
2022-08-10T20:18:24.772Z,1.83
2022-08-10T20:21:00.009Z,1.97
2022-08-10T20:23:34.105Z,1.60
2022-08-10T20:26:06.785Z,1.83
2022-08-10T20:28:42.449Z,1.87
2022-08-10T20:31:17.497Z,1.80
2022-08-10T20:34:00.962Z,1.90
2022-08-10T20:36:33.262Z,2.10
2022-08-10T20:39:13.176Z,2.00
2022-08-10T20:42:03.214Z,1.97
2022-08-10T20:44:44.586Z,1.90
2022-08-10T20:47:19.010Z,2.10
2022-08-10T20:49:58.585Z,1.80
2022-08-10T20:52:29.045Z,2.40
2022-08-10T20:55:01.644Z,2.07
2022-08-10T20:57:55.192Z,1.97
2022-08-10T21:00:31.779Z,2.03
2022-08-10T21:03:32.910Z,2.10
2022-08-10T21:06:36.009Z,1.97
2022-08-10T21:09:22.356Z,1.77
2022-08-10T21:12:08.150Z,2.20
2022-08-10T21:14:48.217Z,2.17
2022-08-10T21:17:41.188Z,2.10
2022-08-10T21:20:30.684Z,2.00
2022-08-10T21:23:05.368Z,2.30
2022-08-10T21:25:45.239Z,1.87
2022-08-10T21:28:49.773Z,1.80
2022-08-10T21:31:39.218Z,2.40
2022-08-10T21:34:19.221Z,2.33
2022-08-10T21:37:01.539Z,2.53
2022-08-10T21:39:48.643Z,2.60
2022-08-10T21:42:47.706Z,2.40
2022-08-10T21:45:54.906Z,2.10
2022-08-10T21:48:57.870Z,2.57
2022-08-10T21:52:01.943Z,2.70
2022-08-10T21:55:00.796Z,2.57
2022-08-10T21:57:58.341Z,2.90
2022-08-10T22:00:44.512Z,3.13
2022-08-10T22:03:39.585Z,2.90
2022-08-10T22:06:27.732Z,2.83
2022-08-10T22:09:19.743Z,2.90
2022-08-10T22:12:31.418Z,2.70
2022-08-10T22:15:23.954Z,2.80
2022-08-10T22:18:32.479Z,2.40
2022-08-10T22:21:27.215Z,2.70
2022-08-10T22:24:31.653Z,2.70
2022-08-10T22:27:47.499Z,2.80
2022-08-10T22:30:37.346Z,2.50
2022-08-10T22:33:44.564Z,2.67
2022-08-10T22:36:50.864Z,2.73
2022-08-10T22:40:12.240Z,2.60
2022-08-10T22:43:09.766Z,2.67
2022-08-10T22:46:03.502Z,2.50
2022-08-10T22:48:51.646Z,2.40
2022-08-10T22:51:23.847Z,2.40
2022-08-10T22:54:30.545Z,2.97
2022-08-10T22:57:18.693Z,2.60
2022-08-10T22:59:49.630Z,2.20
2022-08-10T23:02:33.365Z,2.60
2022-08-10T23:05:09.625Z,2.77
2022-08-10T23:07:47.501Z,2.70
2022-08-10T23:10:19.465Z,2.43
2022-08-10T23:12:52.515Z,2.60
2022-08-10T23:15:44.508Z,2.67
2022-08-10T23:18:36.715Z,2.97
2022-08-10T23:21:06.176Z,2.53
2022-08-10T23:23:40.961Z,2.87
2022-08-10T23:26:11.556Z,2.33
2022-08-10T23:28:58.410Z,2.30
2022-08-10T23:31:59.170Z,2.40
2022-08-10T23:34:25.185Z,2.53
2022-08-10T23:36:55.423Z,2.40
2022-08-10T23:39:32.597Z,2.53
2022-08-10T23:42:07.795Z,2.20
2022-08-10T23:44:43.826Z,2.07
2022-08-10T23:47:15.819Z,2.30
2022-08-10T23:49:46.815Z,2.03
2022-08-10T23:52:18.254Z,1.80
2022-08-10T23:54:50.235Z,2.23
2022-08-10T23:57:21.725Z,2.07
